createdAt,value
2022-12-07T00:00:37.432Z,26.75
2022-12-07T00:03:22.437Z,27.39
2022-12-07T00:06:07.904Z,25.77
2022-12-07T00:08:52.889Z,25.72
2022-12-07T00:11:38.087Z,24.98
2022-12-07T00:14:23.030Z,24.60
2022-12-07T00:17:08.020Z,23.76
2022-12-07T00:19:52.919Z,23.20
2022-12-07T00:22:37.941Z,23.27
2022-12-07T00:25:22.765Z,23.07
2022-12-07T00:28:07.692Z,22.92
2022-12-07T00:30:52.889Z,22.37
2022-12-07T00:33:37.769Z,22.37
2022-12-07T00:36:26.688Z,22.35
2022-12-07T00:39:12.760Z,23.33
2022-12-07T00:41:58.109Z,23.81
2022-12-07T00:44:43.042Z,23.54
2022-12-07T00:47:27.982Z,23.73
2022-12-07T00:50:12.878Z,24.82
2022-12-07T00:52:57.677Z,23.78
2022-12-07T00:55:42.686Z,23.05
2022-12-07T00:58:27.530Z,24.30
2022-12-07T01:01:12.620Z,23.01
2022-12-07T01:03:57.971Z,24.16
2022-12-07T01:06:43.486Z,23.91
2022-12-07T01:09:28.342Z,24.63
2022-12-07T01:12:13.254Z,24.49
2022-12-07T01:14:58.155Z,24.74
2022-12-07T01:17:43.030Z,24.02
2022-12-07T01:20:27.977Z,24.74
2022-12-07T01:23:13.109Z,25.04
2022-12-07T01:25:58.011Z,24.74
2022-12-07T01:28:43.124Z,25.37
2022-12-07T01:31:27.989Z,25.84
2022-12-07T01:34:12.954Z,24.22
2022-12-07T01:36:57.904Z,24.67
2022-12-07T01:39:42.989Z,24.27
2022-12-07T01:42:27.951Z,25.65
2022-12-07T01:45:12.967Z,24.31
2022-12-07T01:47:58.024Z,26.31
2022-12-07T01:50:42.785Z,25.73
2022-12-07T01:53:27.946Z,25.02
2022-12-07T01:56:12.932Z,25.40
2022-12-07T01:58:57.807Z,25.36
2022-12-07T02:01:42.808Z,25.36
2022-12-07T02:04:27.856Z,24.87
2022-12-07T02:07:12.849Z,25.28
2022-12-07T02:09:57.896Z,25.97
2022-12-07T02:12:42.798Z,25.22
2022-12-07T02:15:27.718Z,25.16
2022-12-07T02:18:12.673Z,24.77
2022-12-07T02:20:57.573Z,25.81
2022-12-07T02:23:42.379Z,25.13
2022-12-07T02:26:27.207Z,24.79
2022-12-07T02:29:12.260Z,25.53
2022-12-07T02:31:57.160Z,25.29
2022-12-07T02:34:42.103Z,25.18
2022-12-07T02:37:26.924Z,25.23
2022-12-07T02:40:11.712Z,24.93
2022-12-07T02:42:56.637Z,24.41
2022-12-07T02:45:41.499Z,24.06
2022-12-07T02:48:26.422Z,24.30
2022-12-07T02:51:11.184Z,24.27
2022-12-07T02:53:56.308Z,24.15
2022-12-07T02:56:41.173Z,24.21
2022-12-07T02:59:26.132Z,23.80
2022-12-07T03:02:11.172Z,23.56
2022-12-07T03:04:56.090Z,23.54
2022-12-07T03:07:41.185Z,22.97
2022-12-07T03:10:26.103Z,22.86
2022-12-07T03:13:10.959Z,23.11
2022-12-07T03:15:56.029Z,22.68
2022-12-07T03:18:41.365Z,22.38
2022-12-07T03:21:26.460Z,21.33
2022-12-07T03:26:56.258Z,21.09
2022-12-07T03:29:41.091Z,21.95
2022-12-07T03:32:25.925Z,21.55
2022-12-07T03:35:10.694Z,21.41
2022-12-07T03:37:55.750Z,20.75
2022-12-07T03:40:40.678Z,20.36
2022-12-07T03:43:25.618Z,20.23
2022-12-07T03:46:10.601Z,20.22
2022-12-07T03:48:55.862Z,20.39
2022-12-07T03:51:40.825Z,20.67
2022-12-07T03:54:25.773Z,20.42
2022-12-07T03:57:10.744Z,20.18
2022-12-07T03:59:55.672Z,20.75
2022-12-07T04:02:40.508Z,21.19
2022-12-07T04:05:25.359Z,21.96
2022-12-07T04:08:10.238Z,21.99
2022-12-07T04:10:55.212Z,21.97
2022-12-07T04:13:40.177Z,21.82
2022-12-07T04:16:25.330Z,21.48
2022-12-07T04:19:10.505Z,21.78
2022-12-07T04:21:56.078Z,21.95
2022-12-07T04:24:41.116Z,21.58
2022-12-07T04:27:26.078Z,21.16
2022-12-07T04:30:11.199Z,21.10
2022-12-07T04:32:56.138Z,22.63
2022-12-07T04:35:40.983Z,21.19
2022-12-07T04:38:25.963Z,21.77
2022-12-07T04:41:10.888Z,21.03
2022-12-07T04:43:55.932Z,21.37
2022-12-07T04:46:40.938Z,21.98
2022-12-07T04:49:25.744Z,22.15
2022-12-07T04:52:10.816Z,21.29
2022-12-07T04:54:55.930Z,22.25
2022-12-07T04:57:40.878Z,21.11
2022-12-07T05:00:25.920Z,21.53
2022-12-07T05:03:10.651Z,22.10
2022-12-07T05:05:55.657Z,21.75
2022-12-07T05:08:40.470Z,21.67
2022-12-07T05:11:25.301Z,21.87
2022-12-07T05:14:10.156Z,22.32
2022-12-07T05:16:55.054Z,22.96
2022-12-07T05:19:40.178Z,22.98
2022-12-07T05:22:24.972Z,22.87
2022-12-07T05:25:10.090Z,22.38
2022-12-07T05:27:55.021Z,22.64
2022-12-07T05:30:40.513Z,22.55
2022-12-07T05:33:25.593Z,21.38
2022-12-07T05:36:10.621Z,23.55
2022-12-07T05:38:55.625Z,23.66
2022-12-07T05:41:40.422Z,22.88
2022-12-07T05:44:25.435Z,23.38
2022-12-07T05:47:10.281Z,22.92
2022-12-07T05:49:55.250Z,23.85
2022-12-07T05:52:40.191Z,24.05
2022-12-07T05:55:25.118Z,23.48
2022-12-07T05:58:10.041Z,23.25
2022-12-07T06:00:55.092Z,23.49
2022-12-07T06:03:40.021Z,23.33
2022-12-07T06:06:25.002Z,23.28
2022-12-07T06:09:10.434Z,23.11
2022-12-07T06:11:55.406Z,24.01
2022-12-07T06:14:40.817Z,23.98
2022-12-07T06:17:25.613Z,24.12
2022-12-07T06:20:10.499Z,24.54
2022-12-07T06:22:55.507Z,24.62
2022-12-07T06:25:40.422Z,24.15
2022-12-07T06:28:25.398Z,24.62
2022-12-07T06:31:13.858Z,23.88
2022-12-07T06:33:59.246Z,23.16
2022-12-07T06:36:44.240Z,23.90
2022-12-07T06:39:29.235Z,22.70
2022-12-07T06:42:14.217Z,22.53
2022-12-07T06:44:59.294Z,22.96
2022-12-07T06:47:44.590Z,24.32
2022-12-07T06:50:31.636Z,23.71
2022-12-07T06:53:16.437Z,24.36
2022-12-07T06:56:01.498Z,23.85
2022-12-07T06:58:46.353Z,23.56
2022-12-07T07:01:31.417Z,23.27
2022-12-07T07:04:16.718Z,22.79
2022-12-07T07:07:01.594Z,23.18
2022-12-07T07:09:46.720Z,23.69
2022-12-07T07:12:31.672Z,23.39
2022-12-07T07:15:16.674Z,23.81
2022-12-07T07:18:07.387Z,24.18
2022-12-07T07:20:52.942Z,23.18
2022-12-07T07:23:38.031Z,23.59
2022-12-07T07:26:23.390Z,23.42
2022-12-07T07:29:08.749Z,23.53
2022-12-07T07:31:53.836Z,24.00
2022-12-07T07:34:38.686Z,24.40
2022-12-07T07:37:23.748Z,23.42
2022-12-07T07:40:08.672Z,23.12
2022-12-07T07:42:53.569Z,24.22
2022-12-07T07:45:38.607Z,23.60
2022-12-07T07:48:23.690Z,23.28
2022-12-07T07:51:08.697Z,23.76
2022-12-07T07:53:53.514Z,23.40
2022-12-07T07:56:38.430Z,24.30
2022-12-07T07:59:23.290Z,23.84
2022-12-07T08:02:08.209Z,23.80
2022-12-07T08:04:53.073Z,24.25
2022-12-07T08:07:38.067Z,23.76
2022-12-07T08:10:23.006Z,23.12
2022-12-07T08:13:07.841Z,23.38
2022-12-07T08:15:52.631Z,22.92
2022-12-07T08:18:37.624Z,22.68
2022-12-07T08:21:22.548Z,22.43
2022-12-07T08:24:07.505Z,22.44
2022-12-07T08:26:52.448Z,21.46
2022-12-07T08:29:37.393Z,20.81
2022-12-07T08:32:22.447Z,18.91
2022-12-07T08:35:07.433Z,17.76
2022-12-07T08:37:52.569Z,16.74
2022-12-07T08:40:37.314Z,15.07
2022-12-07T08:43:22.519Z,14.65
2022-12-07T08:46:08.142Z,14.15
2022-12-07T08:48:53.420Z,14.03
2022-12-07T08:51:38.326Z,14.30
2022-12-07T08:54:23.232Z,14.01
2022-12-07T08:57:08.185Z,13.97
2022-12-07T08:59:53.211Z,14.34
2022-12-07T09:02:38.628Z,14.63
2022-12-07T09:05:23.583Z,15.86
2022-12-07T09:08:08.680Z,16.66
2022-12-07T09:10:53.626Z,15.43
2022-12-07T09:13:38.425Z,14.40
2022-12-07T09:16:23.599Z,13.15
2022-12-07T09:19:09.141Z,11.03
2022-12-07T09:21:54.009Z,10.87
2022-12-07T09:24:38.898Z,10.26
2022-12-07T09:27:23.926Z,10.32
2022-12-07T09:30:08.791Z,10.40
2022-12-07T09:32:53.734Z,10.06
2022-12-07T09:35:38.738Z,10.66
2022-12-07T09:38:23.576Z,10.79
2022-12-07T09:41:08.535Z,11.68
2022-12-07T09:43:53.403Z,12.63
2022-12-07T09:46:38.457Z,14.26
2022-12-07T09:49:23.288Z,15.32
2022-12-07T09:52:08.217Z,14.16
2022-12-07T09:54:53.280Z,14.37
2022-12-07T09:57:38.168Z,15.03
2022-12-07T10:00:23.141Z,14.56
2022-12-07T10:03:08.011Z,15.38
2022-12-07T10:05:53.013Z,15.48
2022-12-07T10:08:37.848Z,14.84
2022-12-07T10:11:22.726Z,14.92
2022-12-07T10:14:07.575Z,14.59
2022-12-07T10:16:52.458Z,15.02
2022-12-07T10:19:37.381Z,13.92
2022-12-07T10:22:23.591Z,13.42
2022-12-07T10:25:11.527Z,14.27
2022-12-07T10:27:56.511Z,14.39
2022-12-07T10:30:41.390Z,14.24
2022-12-07T10:33:26.321Z,14.00
2022-12-07T10:36:11.149Z,13.98
2022-12-07T10:38:56.125Z,14.13
2022-12-07T10:41:41.027Z,13.91
2022-12-07T10:44:26.026Z,14.14
2022-12-07T10:47:11.072Z,14.15
2022-12-07T10:49:56.501Z,13.06
2022-12-07T10:52:41.876Z,13.09
2022-12-07T10:55:26.848Z,12.89
2022-12-07T10:58:11.800Z,13.60
2022-12-07T11:00:56.839Z,13.18
2022-12-07T11:03:41.868Z,11.97
2022-12-07T11:06:26.620Z,12.97
2022-12-07T11:09:11.604Z,13.07
2022-12-07T11:11:56.529Z,13.66
2022-12-07T11:14:41.602Z,13.69
2022-12-07T11:17:26.706Z,14.42
2022-12-07T11:20:11.552Z,14.17
2022-12-07T11:22:56.570Z,13.05
2022-12-07T11:25:41.362Z,12.99
2022-12-07T11:28:26.378Z,12.97
2022-12-07T11:31:11.367Z,11.57
2022-12-07T11:33:56.383Z,11.63
2022-12-07T11:36:41.324Z,11.71
2022-12-07T11:39:26.277Z,11.42
2022-12-07T11:42:11.338Z,11.69
2022-12-07T11:44:56.183Z,12.03
2022-12-07T11:47:41.311Z,11.90
2022-12-07T11:50:26.339Z,12.70
2022-12-07T11:53:11.390Z,12.97
2022-12-07T11:55:56.321Z,13.06
2022-12-07T11:58:41.189Z,14.84
2022-12-07T12:01:26.264Z,12.87
2022-12-07T12:04:11.229Z,12.57
2022-12-07T12:06:56.603Z,12.74
2022-12-07T12:09:41.665Z,13.36
2022-12-07T12:15:32.406Z,13.49
2022-12-07T12:18:17.396Z,13.14
2022-12-07T12:21:02.406Z,12.80
2022-12-07T12:23:47.205Z,13.79
2022-12-07T12:26:32.172Z,14.56
2022-12-07T12:29:17.054Z,14.86
2022-12-07T12:32:02.040Z,14.37
2022-12-07T12:34:50.669Z,14.87
2022-12-07T12:37:35.887Z,14.68
2022-12-07T12:40:20.779Z,14.75
2022-12-07T12:43:05.606Z,14.99
2022-12-07T12:45:50.565Z,15.66
2022-12-07T12:48:35.535Z,15.68
2022-12-07T12:51:20.533Z,15.51
2022-12-07T12:54:05.532Z,15.14
2022-12-07T12:56:50.842Z,15.43
2022-12-07T12:59:35.817Z,15.54
2022-12-07T13:02:20.735Z,15.89
2022-12-07T13:05:06.414Z,15.79
2022-12-07T13:07:51.728Z,16.04
2022-12-07T13:10:36.539Z,15.91
2022-12-07T13:13:21.396Z,15.22
2022-12-07T13:16:06.335Z,15.63
2022-12-07T13:18:51.272Z,15.69
2022-12-07T13:21:36.125Z,15.05
2022-12-07T13:24:21.059Z,15.24
2022-12-07T13:27:06.059Z,15.15
2022-12-07T13:29:50.924Z,15.85
2022-12-07T13:32:35.881Z,15.51
2022-12-07T13:35:20.682Z,15.05
2022-12-07T13:38:05.656Z,14.13
2022-12-07T13:40:50.521Z,14.91
2022-12-07T13:43:35.564Z,14.83
2022-12-07T13:46:20.463Z,14.61
2022-12-07T13:49:05.349Z,15.10
2022-12-07T13:51:50.161Z,15.10
2022-12-07T13:54:35.062Z,15.41
2022-12-07T13:57:20.113Z,15.42
2022-12-07T14:00:04.935Z,15.81
2022-12-07T14:02:51.167Z,16.00
2022-12-07T14:05:36.109Z,15.82
2022-12-07T14:08:21.097Z,16.15
2022-12-07T14:11:05.905Z,15.22
2022-12-07T14:13:50.769Z,15.02
2022-12-07T14:16:35.892Z,14.92
2022-12-07T14:19:20.697Z,15.28
2022-12-07T14:22:05.920Z,15.61
2022-12-07T14:24:51.299Z,16.38
2022-12-07T14:27:36.228Z,17.37
2022-12-07T14:30:21.114Z,16.78
2022-12-07T14:33:06.142Z,15.36
2022-12-07T14:35:51.230Z,15.60
2022-12-07T14:38:36.011Z,15.58
2022-12-07T14:41:21.068Z,15.94
2022-12-07T14:44:23.036Z,15.81
2022-12-07T14:50:14.934Z,14.69
2022-12-07T14:56:05.199Z,14.78
2022-12-07T14:58:50.185Z,15.39
2022-12-07T15:01:35.186Z,16.86
2022-12-07T15:04:20.216Z,15.74
2022-12-07T15:07:05.611Z,16.68
2022-12-07T15:09:50.621Z,16.40
2022-12-07T15:12:35.689Z,16.41
2022-12-07T15:15:20.548Z,17.01
2022-12-07T15:18:05.402Z,17.21
2022-12-07T15:20:50.382Z,16.58
2022-12-07T15:23:35.402Z,16.56
2022-12-07T15:26:20.331Z,17.12
2022-12-07T15:29:05.340Z,16.40
2022-12-07T15:31:58.451Z,16.48
2022-12-07T15:34:43.897Z,15.81
2022-12-07T15:37:28.709Z,14.61
2022-12-07T15:40:13.769Z,15.01
2022-12-07T15:42:58.656Z,15.49
2022-12-07T15:45:43.684Z,15.53
2022-12-07T15:48:29.651Z,16.39
2022-12-07T15:51:14.994Z,15.16
2022-12-07T15:54:00.116Z,14.64
2022-12-07T15:56:44.963Z,15.21
2022-12-07T15:59:29.910Z,14.50
2022-12-07T16:02:14.795Z,14.40
2022-12-07T16:04:59.731Z,15.10
2022-12-07T16:07:44.531Z,15.25
2022-12-07T16:10:29.554Z,14.69
2022-12-07T16:13:14.435Z,13.73
2022-12-07T16:15:59.448Z,14.16
2022-12-07T16:18:44.471Z,13.90
2022-12-07T16:21:29.318Z,13.98
2022-12-07T16:24:14.070Z,13.68
2022-12-07T16:26:59.041Z,13.79
2022-12-07T16:29:43.841Z,13.43
2022-12-07T16:32:28.699Z,13.39
2022-12-07T16:35:13.641Z,14.03
2022-12-07T16:37:58.538Z,13.21
2022-12-07T16:40:43.405Z,13.54
2022-12-07T16:43:28.356Z,13.43
2022-12-07T16:46:13.281Z,13.54
2022-12-07T16:48:58.216Z,13.25
2022-12-07T16:51:43.161Z,13.10
2022-12-07T16:54:28.118Z,13.26
2022-12-07T16:57:20.002Z,13.13
2022-12-07T17:00:07.633Z,13.22
2022-12-07T17:02:52.493Z,12.90
2022-12-07T17:05:37.625Z,13.07
2022-12-07T17:08:22.616Z,11.92
2022-12-07T17:11:08.022Z,10.95
2022-12-07T17:13:52.944Z,10.81
2022-12-07T17:16:37.885Z,11.67
2022-12-07T17:19:22.787Z,11.66
2022-12-07T17:22:07.728Z,18.40
2022-12-07T17:24:52.942Z,13.92
2022-12-07T17:27:37.820Z,12.25
2022-12-07T17:30:22.764Z,11.81
2022-12-07T17:33:07.678Z,12.19
2022-12-07T17:35:52.732Z,12.67
2022-12-07T17:38:37.636Z,12.63
2022-12-07T17:41:22.462Z,12.55
2022-12-07T17:44:07.612Z,13.02
2022-12-07T17:46:52.556Z,21.93
2022-12-07T17:49:37.588Z,17.92
2022-12-07T17:52:22.435Z,19.38
2022-12-07T17:55:07.406Z,18.41
2022-12-07T17:57:52.107Z,18.37
2022-12-07T18:00:37.015Z,21.37
2022-12-07T18:03:21.933Z,29.36
2022-12-07T18:06:07.537Z,27.19
2022-12-07T18:08:52.557Z,22.71
2022-12-07T18:11:37.462Z,27.36
2022-12-07T18:14:22.531Z,23.46
2022-12-07T18:17:07.460Z,38.06
2022-12-07T18:19:52.401Z,29.62
2022-12-07T18:22:37.209Z,22.77
2022-12-07T18:25:22.449Z,23.73
2022-12-07T18:28:07.349Z,23.80
2022-12-07T18:31:14.758Z,19.35
2022-12-07T18:33:57.614Z,17.25
2022-12-07T18:36:42.572Z,18.26
2022-12-07T18:39:33.303Z,14.99
2022-12-07T18:42:18.481Z,14.57
2022-12-07T18:45:03.855Z,14.27
2022-12-07T18:47:49.279Z,14.42
2022-12-07T18:50:34.194Z,14.04
2022-12-07T18:53:19.112Z,14.30
2022-12-07T18:56:04.048Z,14.55
2022-12-07T18:58:49.045Z,14.16
2022-12-07T19:01:33.973Z,15.93
2022-12-07T19:04:18.768Z,13.59
2022-12-07T19:07:04.293Z,18.78
2022-12-07T19:09:49.273Z,25.30
2022-12-07T19:12:34.209Z,22.19
2022-12-07T19:15:19.144Z,15.35
2022-12-07T19:18:04.238Z,15.75
2022-12-07T19:20:49.153Z,17.66
2022-12-07T19:23:33.860Z,16.33
2022-12-07T19:26:18.877Z,15.21
2022-12-07T19:29:03.868Z,15.23
2022-12-07T19:31:48.975Z,16.45
2022-12-07T19:34:34.538Z,15.74
2022-12-07T19:37:19.407Z,16.47
2022-12-07T19:40:04.319Z,17.44
2022-12-07T19:42:49.084Z,17.70
2022-12-07T19:45:34.158Z,17.41
2022-12-07T19:48:18.952Z,17.65
2022-12-07T19:51:03.867Z,17.15
2022-12-07T19:53:48.881Z,17.23
2022-12-07T19:56:33.762Z,17.41
2022-12-07T19:59:18.743Z,16.98
2022-12-07T20:02:03.606Z,16.55
2022-12-07T20:04:48.458Z,16.13
2022-12-07T20:07:33.444Z,16.26
2022-12-07T20:10:22.976Z,15.36
2022-12-07T20:13:11.115Z,15.45
2022-12-07T20:16:12.088Z,15.99
2022-12-07T20:19:01.047Z,16.06
2022-12-07T20:21:46.045Z,15.57
2022-12-07T20:24:30.899Z,14.57
2022-12-07T20:27:15.807Z,13.70
2022-12-07T20:30:00.822Z,13.49
2022-12-07T20:32:45.769Z,13.84
2022-12-07T20:35:30.722Z,13.94
2022-12-07T20:38:15.665Z,14.01
2022-12-07T20:41:00.482Z,14.14
2022-12-07T20:43:45.466Z,13.73
2022-12-07T20:46:30.423Z,14.76
2022-12-07T20:49:15.885Z,14.02
2022-12-07T20:52:00.911Z,13.84
2022-12-07T20:54:46.098Z,13.29
2022-12-07T20:57:31.094Z,13.22
2022-12-07T21:00:16.106Z,13.52
2022-12-07T21:03:01.025Z,14.42
2022-12-07T21:05:50.677Z,14.23
2022-12-07T21:08:35.973Z,14.22
2022-12-07T21:11:20.668Z,14.25
2022-12-07T21:14:05.745Z,13.91
2022-12-07T21:16:50.651Z,14.01
2022-12-07T21:19:35.618Z,13.67
2022-12-07T21:22:20.704Z,14.02
2022-12-07T21:25:05.866Z,13.29
2022-12-07T21:27:50.955Z,13.23
2022-12-07T21:31:04.700Z,13.92
2022-12-07T21:33:41.019Z,12.88
2022-12-07T21:36:25.994Z,13.32
2022-12-07T21:39:10.648Z,13.82
2022-12-07T21:41:55.512Z,14.33
2022-12-07T21:44:40.435Z,14.52
2022-12-07T21:47:25.488Z,14.00
2022-12-07T21:50:10.353Z,14.06
2022-12-07T21:52:55.228Z,13.40
2022-12-07T21:55:40.255Z,13.79
2022-12-07T21:58:25.192Z,13.75
2022-12-07T22:01:10.232Z,13.61
2022-12-07T22:03:55.148Z,13.62
2022-12-07T22:06:40.133Z,13.46
2022-12-07T22:09:25.078Z,13.09
2022-12-07T22:12:10.034Z,13.22
2022-12-07T22:14:54.770Z,12.92
2022-12-07T22:17:39.609Z,13.64
2022-12-07T22:20:24.539Z,13.38
2022-12-07T22:23:09.375Z,12.86
2022-12-07T22:25:54.438Z,12.93
2022-12-07T22:28:39.358Z,12.78
2022-12-07T22:31:24.487Z,12.97
2022-12-07T22:34:09.817Z,12.91
2022-12-07T22:36:54.625Z,13.04
2022-12-07T22:39:39.721Z,13.76
2022-12-07T22:42:24.623Z,13.33
2022-12-07T22:45:09.576Z,13.73
2022-12-07T22:47:54.549Z,14.65
2022-12-07T22:50:39.614Z,13.90
2022-12-07T22:53:24.392Z,14.54
2022-12-07T22:56:09.314Z,13.52
2022-12-07T22:58:54.127Z,14.23
2022-12-07T23:01:39.216Z,14.00
2022-12-07T23:04:24.213Z,14.44
2022-12-07T23:07:09.196Z,14.66
2022-12-07T23:09:54.183Z,14.41
2022-12-07T23:12:39.148Z,14.47
2022-12-07T23:15:24.183Z,14.48
2022-12-07T23:18:09.098Z,14.92
2022-12-07T23:20:53.977Z,15.06
2022-12-07T23:23:38.795Z,14.99
2022-12-07T23:26:23.769Z,14.98
2022-12-07T23:29:10.952Z,15.06
2022-12-07T23:31:59.386Z,15.03
2022-12-07T23:34:44.233Z,15.36
2022-12-07T23:37:29.216Z,15.60
2022-12-07T23:40:14.113Z,15.16
2022-12-07T23:42:59.080Z,14.58
2022-12-07T23:45:43.942Z,15.51
2022-12-07T23:48:28.945Z,15.41
2022-12-07T23:51:13.802Z,15.59
2022-12-07T23:53:58.653Z,15.45
2022-12-07T23:56:43.596Z,15.30
2022-12-07T23:59:28.575Z,15.65
